Time;durP1;ratioP1;P1;durP2;ratioP2;P2;SDS_P1;SDS_P2;PMS_P1;PMS_P2;Temp;Humidity;BMP_temperature;BMP_pressure;BME280_temperature;BME280_humidity;BME280_pressure;Samples;Min_cycle;Max_cycle;Signal;HPM_P1;HPM_P2
2021/10/12 00:00:51;;;;;;;11.27;8.60;;;;;;;7.29;100.00;96568.00;5032341;28;21370;-77
2021/10/12 00:03:17;;;;;;;14.23;8.63;;;;;;;7.35;100.00;96567.78;5033187;28;20765;-76
2021/10/12 00:05:44;;;;;;;10.75;8.85;;;;;;;7.34;100.00;96562.66;5035118;28;24428;-77
2021/10/12 00:08:12;;;;;;;14.25;9.35;;;;;;;7.37;100.00;96560.81;5035807;28;25017;-76
2021/10/12 00:10:38;;;;;;;10.13;8.30;;;;;;;7.45;100.00;96553.66;5032699;28;24423;-77
2021/10/12 00:13:05;;;;;;;8.95;7.95;;;;;;;7.37;100.00;96563.41;5032659;28;24435;-76
2021/10/12 00:15:31;;;;;;;9.00;8.10;;;;;;;7.39;100.00;96556.47;5031920;28;24411;-77
2021/10/12 00:17:57;;;;;;;9.90;8.90;;;;;;;7.35;100.00;96551.50;5031953;28;24434;-77
2021/10/12 00:20:24;;;;;;;9.55;7.75;;;;;;;7.37;100.00;96549.69;5031722;28;24897;-77
2021/10/12 00:22:51;;;;;;;8.60;7.03;;;;;;;7.43;100.00;96550.28;5031828;28;24432;-76
2021/10/12 00:25:18;;;;;;;7.05;6.05;;;;;;;7.39;100.00;96553.06;5031718;28;24423;-77
2021/10/12 00:27:45;;;;;;;9.37;6.40;;;;;;;7.25;100.00;96549.25;5031865;28;24879;-77
2021/10/12 00:30:12;;;;;;;6.57;5.90;;;;;;;7.03;100.00;96549.19;5031788;28;24443;-77
2021/10/12 00:32:38;;;;;;;8.80;6.15;;;;;;;6.97;100.00;96549.44;5031723;28;24425;-77
2021/10/12 00:35:06;;;;;;;7.65;6.28;;;;;;;6.93;100.00;96549.56;5031276;28;24423;-77
2021/10/12 00:37:32;;;;;;;7.00;5.82;;;;;;;6.88;100.00;96552.31;5031752;28;24428;-77
2021/10/12 00:39:59;;;;;;;7.25;6.55;;;;;;;6.88;100.00;96546.34;5031561;28;24558;-76
2021/10/12 00:42:27;;;;;;;7.88;6.70;;;;;;;6.88;100.00;96549.75;5031495;28;24428;-77
2021/10/12 00:44:53;;;;;;;11.10;7.05;;;;;;;6.88;100.00;96551.47;5031163;28;24431;-77
2021/10/12 00:47:20;;;;;;;7.75;6.88;;;;;;;6.90;100.00;96549.69;5031183;28;24790;-77
2021/10/12 00:49:46;;;;;;;8.45;7.38;;;;;;;6.95;100.00;96550.38;5030643;28;25015;-76
2021/10/12 00:52:12;;;;;;;8.75;7.50;;;;;;;6.96;100.00;96552.88;5031361;28;24490;-77
2021/10/12 00:54:40;;;;;;;7.63;6.82;;;;;;;6.97;100.00;96552.00;5030851;28;24958;-76
2021/10/12 00:57:07;;;;;;;8.00;6.83;;;;;;;7.01;100.00;96551.00;5031748;28;20822;-76
2021/10/12 00:59:36;;;;;;;7.65;6.20;;;;;;;6.93;100.00;96552.97;5031207;28;24788;-77
2021/10/12 01:02:03;;;;;;;7.75;6.82;;;;;;;6.95;100.00;96553.78;5031037;28;24976;-76
2021/10/12 01:04:29;;;;;;;7.40;6.00;;;;;;;6.94;100.00;96549.53;5031082;28;24444;-76
2021/10/12 01:06:56;;;;;;;7.00;5.50;;;;;;;6.92;100.00;96547.91;5030974;28;24481;-76
2021/10/12 01:09:22;;;;;;;7.30;6.47;;;;;;;6.86;100.00;96536.09;5031092;28;24941;-76
2021/10/12 01:11:49;;;;;;;9.25;7.65;;;;;;;6.85;100.00;96529.25;5030866;28;25003;-76
2021/10/12 01:14:15;;;;;;;8.77;7.72;;;;;;;6.89;100.00;96527.41;5031306;28;24438;-76
2021/10/12 01:16:43;;;;;;;9.27;7.30;;;;;;;6.87;100.00;96531.78;5030457;28;24416;-76
2021/10/12 01:19:10;;;;;;;22.65;8.23;;;;;;;6.74;100.00;96536.50;5031060;28;24824;-76
2021/10/12 01:21:43;;;;;;;12.85;8.52;;;;;;;6.77;100.00;96524.38;5030823;28;24527;-76
2021/10/12 01:24:10;;;;;;;9.97;8.67;;;;;;;6.78;100.00;96530.34;5030980;28;24503;-76
2021/10/12 01:26:39;;;;;;;15.18;8.48;;;;;;;6.76;100.00;96529.59;5030412;28;24412;-76
2021/10/12 01:29:06;;;;;;;15.97;7.83;;;;;;;6.71;100.00;96527.19;5030546;28;24439;-76
2021/10/12 01:31:33;;;;;;;9.35;8.35;;;;;;;6.77;100.00;96518.38;5030721;28;24423;-76
2021/10/12 01:34:00;;;;;;;10.32;8.57;;;;;;;6.80;100.00;96505.41;5030734;28;24790;-76
2021/10/12 01:36:27;;;;;;;9.90;7.97;;;;;;;6.85;100.00;96506.06;5030080;28;24974;-76
2021/10/12 01:38:55;;;;;;;9.98;8.48;;;;;;;6.85;100.00;96500.91;5030545;28;24419;-76
2021/10/12 01:41:21;;;;;;;10.75;8.20;;;;;;;6.85;100.00;96494.94;5030347;28;24502;-76
2021/10/12 01:43:48;;;;;;;11.50;9.07;;;;;;;6.87;100.00;96498.31;5030283;28;24423;-76
2021/10/12 01:46:14;;;;;;;10.95;8.65;;;;;;;6.57;100.00;96490.78;5030151;28;24937;-76
2021/10/12 01:48:41;;;;;;;8.70;7.80;;;;;;;6.62;100.00;96494.03;5030592;28;24478;-76
2021/10/12 01:51:07;;;;;;;8.95;8.13;;;;;;;6.55;100.00;96498.56;5040011;28;24439;-76
2021/10/12 01:53:33;;;;;;;10.70;8.73;;;;;;;6.48;100.00;96488.53;5048064;28;24841;-76
2021/10/12 01:56:02;;;;;;;13.27;9.20;;;;;;;6.34;100.00;96483.88;5032133;28;24996;-77
2021/10/12 01:58:31;;;;;;;9.60;7.82;;;;;;;6.23;100.00;96480.81;5049641;28;24416;-76
2021/10/12 02:00:57;;;;;;;9.20;8.07;;;;;;;6.25;100.00;96485.03;5052327;28;24451;-76
2021/10/12 02:03:24;;;;;;;9.48;7.75;;;;;;;6.29;100.00;96485.75;5054538;28;24451;-76
2021/10/12 02:05:50;;;;;;;8.60;7.75;;;;;;;6.29;100.00;96486.59;5054096;28;24812;-76
2021/10/12 02:08:17;;;;;;;9.70;8.45;;;;;;;6.45;100.00;96479.19;5054434;28;24957;-76
2021/10/12 02:10:44;;;;;;;11.32;8.75;;;;;;;6.52;100.00;96470.34;5054156;28;24473;-76
2021/10/12 02:13:12;;;;;;;8.73;7.85;;;;;;;6.63;100.00;96469.97;5053683;28;24492;-76
2021/10/12 02:15:38;;;;;;;8.70;7.88;;;;;;;6.70;100.00;96453.41;5054066;28;24824;-76
2021/10/12 02:18:05;;;;;;;10.23;8.25;;;;;;;6.71;100.00;96447.38;5054107;28;24431;-76
2021/10/12 02:20:31;;;;;;;10.65;8.05;;;;;;;6.71;100.00;96447.38;5054006;28;24443;-76
2021/10/12 02:22:58;;;;;;;9.13;7.35;;;;;;;6.73;100.00;96444.75;5054358;28;24434;-77
2021/10/12 02:25:24;;;;;;;8.55;7.53;;;;;;;6.70;100.00;96442.28;5053684;28;24420;-76
2021/10/12 02:27:51;;;;;;;9.00;7.50;;;;;;;6.66;100.00;96438.13;5053992;28;24439;-76
2021/10/12 02:30:18;;;;;;;9.02;8.20;;;;;;;6.45;100.00;96453.47;5054016;28;24477;-76
2021/10/12 02:32:45;;;;;;;12.48;9.45;;;;;;;6.40;100.00;96452.78;5054041;28;24821;-75
2021/10/12 02:35:11;;;;;;;11.77;10.27;;;;;;;6.36;100.00;96445.22;5053904;28;24426;-76
2021/10/12 02:37:37;;;;;;;14.40;12.50;;;;;;;6.32;100.00;96451.38;5053891;28;24422;-76
2021/10/12 02:40:05;;;;;;;15.25;10.63;;;;;;;6.36;100.00;96451.22;5053998;28;24419;-76
2021/10/12 02:42:32;;;;;;;11.02;9.45;;;;;;;6.48;100.00;96450.75;5053633;28;25038;-76
2021/10/12 02:44:58;;;;;;;8.23;7.43;;;;;;;6.60;100.00;96446.06;5053520;28;24418;-76
2021/10/12 02:47:26;;;;;;;9.45;8.40;;;;;;;6.59;100.00;96434.94;5053603;28;24423;-76
2021/10/12 02:49:52;;;;;;;9.52;8.52;;;;;;;6.52;100.00;96429.16;5053455;28;24485;-77
2021/10/12 02:52:18;;;;;;;7.82;7.07;;;;;;;6.43;100.00;96434.66;5053402;28;24808;-76
2021/10/12 02:54:45;;;;;;;7.75;6.97;;;;;;;6.37;100.00;96424.56;5053027;28;25013;-76
2021/10/12 02:57:11;;;;;;;7.70;6.90;;;;;;;6.35;100.00;96422.97;5058566;28;24492;-76
2021/10/12 02:59:38;;;;;;;8.73;7.82;;;;;;;6.33;100.00;96423.00;5062357;28;24478;-76
2021/10/12 03:02:04;;;;;;;7.97;7.15;;;;;;;6.37;100.00;96408.31;5062477;28;24449;-76
2021/10/12 03:04:32;;;;;;;9.25;7.93;;;;;;;6.32;100.00;96405.06;5064133;28;24851;-76
2021/10/12 03:06:58;;;;;;;8.93;8.02;;;;;;;6.33;100.00;96399.03;5064482;28;24808;-76
2021/10/12 03:09:25;;;;;;;14.05;8.90;;;;;;;6.30;100.00;96390.53;5063601;28;24800;-76
2021/10/12 03:11:51;;;;;;;9.88;8.40;;;;;;;6.38;100.00;96381.69;5064229;28;24427;-76
2021/10/12 03:14:18;;;;;;;8.95;8.05;;;;;;;6.45;100.00;96375.41;5061485;28;24431;-76
2021/10/12 03:16:44;;;;;;;13.10;8.05;;;;;;;6.52;100.00;96364.84;5061431;28;24437;-76
2021/10/12 03:19:12;;;;;;;10.63;7.72;;;;;;;6.60;100.00;96369.72;5060363;28;24446;-76
2021/10/12 03:21:45;;;;;;;12.25;8.40;;;;;;;6.63;100.00;96361.88;5062659;28;24468;-76
2021/10/12 03:24:12;;;;;;;10.57;8.00;;;;;;;6.64;100.00;96362.72;5062991;28;24431;-76
2021/10/12 03:26:38;;;;;;;8.68;7.53;;;;;;;6.68;100.00;96361.72;5060833;28;24546;-76
2021/10/12 03:29:05;;;;;;;10.20;7.93;;;;;;;6.68;100.00;96354.00;5061524;28;24433;-76
2021/10/12 03:31:32;;;;;;;9.27;7.90;;;;;;;6.69;100.00;96350.50;5062808;28;24446;-76
2021/10/12 03:33:58;;;;;;;11.35;8.25;;;;;;;6.72;100.00;96355.53;5060800;28;24430;-75
2021/10/12 03:36:25;;;;;;;11.23;9.07;;;;;;;6.66;100.00;96364.31;5061196;28;24492;-76
2021/10/12 03:38:52;;;;;;;10.13;8.73;;;;;;;6.50;100.00;96366.66;5062566;28;24542;-76
2021/10/12 03:41:19;;;;;;;11.77;9.77;;;;;;;6.40;100.00;96370.44;5061125;28;24463;-76
2021/10/12 03:43:45;;;;;;;11.10;8.77;;;;;;;6.46;100.00;96365.09;5061253;28;24457;-76
2021/10/12 03:46:12;;;;;;;9.10;7.72;;;;;;;6.55;100.00;96366.47;5062180;28;24423;-77
2021/10/12 03:48:38;;;;;;;10.77;7.63;;;;;;;6.66;100.00;96372.03;5068947;28;24517;-76
2021/10/12 03:51:07;;;;;;;8.50;7.32;;;;;;;6.65;100.00;96370.38;5063965;28;24473;-75
2021/10/12 03:53:34;;;;;;;8.43;7.45;;;;;;;6.74;100.00;96358.88;5072568;28;24427;-77
2021/10/12 03:56:02;;;;;;;8.40;7.60;;;;;;;6.78;100.00;96360.44;5071967;28;24792;-76
2021/10/12 03:58:28;;;;;;;8.70;7.45;;;;;;;6.82;100.00;96358.59;5072686;28;24426;-77
2021/10/12 04:00:55;;;;;;;7.40;6.50;;;;;;;6.66;100.00;96360.91;5072246;28;24480;-76
2021/10/12 04:03:21;;;;;;;10.20;7.55;;;;;;;6.59;100.00;96364.63;5072117;28;24429;-76
2021/10/12 04:05:48;;;;;;;8.55;7.38;;;;;;;6.58;100.00;96368.94;5072099;28;24497;-76
2021/10/12 04:08:14;;;;;;;8.57;7.63;;;;;;;6.57;100.00;96374.97;5072264;28;24476;-77
2021/10/12 04:10:41;;;;;;;8.02;6.90;;;;;;;6.60;100.00;96362.00;5072210;28;24461;-76
2021/10/12 04:13:09;;;;;;;10.32;8.00;;;;;;;6.64;100.00;96365.31;5072057;28;24423;-77
2021/10/12 04:15:36;;;;;;;7.93;6.82;;;;;;;6.68;100.00;96362.53;5071710;28;24415;-76
2021/10/12 04:18:03;;;;;;;10.13;8.13;;;;;;;6.69;100.00;96359.06;5072008;28;24430;-76
2021/10/12 04:20:29;;;;;;;11.20;8.25;;;;;;;6.60;100.00;96354.28;5072040;28;24435;-76
2021/10/12 04:22:57;;;;;;;8.82;7.93;;;;;;;6.60;100.00;96349.13;5071835;28;24797;-76
2021/10/12 04:25:24;;;;;;;11.45;7.55;;;;;;;6.47;100.00;96350.47;5070875;28;24419;-76
2021/10/12 04:27:51;;;;;;;10.20;8.23;;;;;;;6.32;100.00;96348.47;5071656;28;24430;-76
2021/10/12 04:30:19;;;;;;;10.65;8.63;;;;;;;6.44;100.00;96348.00;5071540;28;24504;-77
2021/10/12 04:32:46;;;;;;;13.40;9.50;;;;;;;6.30;100.00;96353.66;5071813;28;24411;-77
2021/10/12 04:35:12;;;;;;;16.10;9.20;;;;;;;6.15;100.00;96352.47;5071530;28;24419;-76
2021/10/12 04:37:39;;;;;;;9.85;8.90;;;;;;;6.20;100.00;96337.75;5071409;28;24824;-77
2021/10/12 04:40:07;;;;;;;10.15;8.60;;;;;;;6.26;100.00;96341.81;5071531;28;24815;-76
2021/10/12 04:42:35;;;;;;;9.80;8.70;;;;;;;6.41;100.00;96342.97;5071398;28;24449;-76
2021/10/12 04:45:01;;;;;;;10.48;9.27;;;;;;;6.21;100.00;96347.13;5071235;28;24422;-76
2021/10/12 04:47:29;;;;;;;9.95;8.20;;;;;;;6.17;100.00;96352.44;5071628;28;24457;-77
2021/10/12 04:49:55;;;;;;;12.73;8.52;;;;;;;6.29;100.00;96337.38;5071723;28;24437;-78
2021/10/12 04:52:22;;;;;;;10.02;8.60;;;;;;;6.34;100.00;96344.09;5045466;28;25011;-77
2021/10/12 04:54:48;;;;;;;9.35;8.35;;;;;;;6.24;100.00;96344.44;5051443;28;24439;-76
2021/10/12 04:57:15;;;;;;;10.82;8.70;;;;;;;6.27;100.00;96336.63;5050482;28;24446;-77
2021/10/12 04:59:42;;;;;;;12.98;8.90;;;;;;;6.36;100.00;96334.59;5042526;28;24428;-77
2021/10/12 05:02:08;;;;;;;8.93;8.00;;;;;;;6.47;100.00;96328.16;5035549;28;25003;-77
2021/10/12 05:04:36;;;;;;;9.90;8.73;;;;;;;6.60;100.00;96331.13;5032522;28;24431;-76
2021/10/12 05:07:03;;;;;;;10.05;8.40;;;;;;;6.66;100.00;96327.47;5031186;28;24419;-75
2021/10/12 05:09:29;;;;;;;12.60;8.65;;;;;;;6.71;100.00;96335.81;5031178;28;24949;-77
2021/10/12 05:11:55;;;;;;;10.48;8.00;;;;;;;6.75;100.00;96335.69;5036250;28;24432;-78
2021/10/12 05:14:22;;;;;;;8.35;7.55;;;;;;;6.74;100.00;96326.25;5050082;28;24435;-77
2021/10/12 05:16:50;;;;;;;11.48;8.98;;;;;;;6.68;100.00;96336.81;5050717;28;24426;-77
2021/10/12 05:19:16;;;;;;;8.27;7.45;;;;;;;6.74;100.00;96328.81;5050742;28;24434;-74
2021/10/12 05:21:44;;;;;;;11.35;7.80;;;;;;;6.82;100.00;96320.81;5050223;28;24454;-75
2021/10/12 05:24:11;;;;;;;8.55;7.68;;;;;;;6.83;100.00;96324.25;5050603;28;24415;-75
2021/10/12 05:26:37;;;;;;;8.52;7.63;;;;;;;6.76;100.00;96315.91;5050579;28;24488;-75
2021/10/12 05:29:04;;;;;;;8.55;7.50;;;;;;;6.81;100.00;96313.97;5050827;28;24612;-75
2021/10/12 05:31:30;;;;;;;16.00;8.25;;;;;;;6.81;100.00;96303.69;5050611;28;24427;-75
2021/10/12 05:33:57;;;;;;;10.95;7.93;;;;;;;6.84;100.00;96308.72;5050733;28;24450;-75
2021/10/12 05:36:23;;;;;;;11.47;9.07;;;;;;;6.68;100.00;96310.22;5050030;28;24450;-75
2021/10/12 05:38:51;;;;;;;9.37;8.17;;;;;;;6.70;100.00;96300.69;5050519;28;24415;-74
2021/10/12 05:41:17;;;;;;;14.30;8.02;;;;;;;6.65;100.00;96300.06;5050268;28;24443;-75
2021/10/12 05:43:44;;;;;;;10.57;8.38;;;;;;;6.55;100.00;96302.13;5050595;28;24434;-75
2021/10/12 05:46:10;;;;;;;11.52;8.02;;;;;;;6.54;100.00;96303.03;5050806;28;24987;-77
2021/10/12 05:48:37;;;;;;;9.63;7.55;;;;;;;6.55;100.00;96297.81;5050941;28;24415;-76
2021/10/12 05:51:03;;;;;;;11.23;8.25;;;;;;;6.57;100.00;96304.66;5050537;28;24446;-76
2021/10/12 05:53:32;;;;;;;8.98;7.40;;;;;;;6.67;100.00;96296.50;5050417;28;24951;-70
2021/10/12 05:56:06;;;;;;;8.15;6.95;;;;;;;6.77;100.00;96305.53;5049766;28;24561;-75
2021/10/12 05:58:35;;;;;;;7.78;7.00;;;;;;;6.81;100.00;96308.00;5050868;28;24829;-75
2021/10/12 06:01:04;;;;;;;9.00;7.80;;;;;;;6.85;100.00;96307.81;5050662;28;24522;-77
2021/10/12 06:03:30;;;;;;;8.02;7.20;;;;;;;6.88;100.00;96306.88;5050719;28;25164;-77
2021/10/12 06:05:57;;;;;;;8.02;7.13;;;;;;;6.90;100.00;96302.50;5049606;28;24536;-75
2021/10/12 06:08:23;;;;;;;8.68;7.28;;;;;;;6.93;100.00;96302.34;5051230;28;24420;-75
2021/10/12 06:10:50;;;;;;;8.77;6.72;;;;;;;6.97;100.00;96298.75;5056286;28;24501;-77
2021/10/12 06:13:18;;;;;;;10.30;7.03;;;;;;;7.02;100.00;96297.69;5055531;28;24477;-76
2021/10/12 06:15:45;;;;;;;8.05;7.25;;;;;;;7.06;100.00;96297.56;5053744;28;24444;-76
2021/10/12 06:18:12;;;;;;;7.47;6.68;;;;;;;7.07;100.00;96299.25;5051162;28;24485;-76
2021/10/12 06:20:38;;;;;;;7.30;6.40;;;;;;;7.32;100.00;96305.06;5050638;28;24446;-77
2021/10/12 06:23:05;;;;;;;9.55;7.28;;;;;;;7.33;100.00;96311.88;5051027;28;24459;-78
2021/10/12 06:25:32;;;;;;;7.93;6.50;;;;;;;7.15;100.00;96304.91;5055408;28;24423;-76
2021/10/12 06:27:58;;;;;;;9.55;7.50;;;;;;;7.12;100.00;96310.19;5056329;28;24427;-76
2021/10/12 06:30:27;;;;;;;7.90;7.00;;;;;;;6.98;100.00;96314.16;5052785;28;24415;-77
2021/10/12 06:32:53;;;;;;;9.68;7.28;;;;;;;6.87;100.00;96316.34;5051526;28;24427;-75
2021/10/12 06:35:20;;;;;;;9.95;7.25;;;;;;;6.81;100.00;96321.72;5050070;28;24427;-76
2021/10/12 06:37:46;;;;;;;9.90;7.25;;;;;;;6.91;100.00;96325.59;5050205;28;24793;-75
2021/10/12 06:40:13;;;;;;;12.38;7.38;;;;;;;6.93;100.00;96328.09;5049915;28;24987;-76
2021/10/12 06:42:40;;;;;;;9.45;7.15;;;;;;;6.89;100.00;96327.38;5050260;28;24533;-76
2021/10/12 06:45:07;;;;;;;8.07;6.45;;;;;;;6.88;100.00;96328.28;5049895;28;24430;-76
2021/10/12 06:47:35;;;;;;;9.57;7.32;;;;;;;7.03;100.00;96335.41;5051716;28;24427;-76
2021/10/12 06:50:01;;;;;;;12.20;6.80;;;;;;;7.02;100.00;96328.59;5053687;28;24422;-78
2021/10/12 06:52:27;;;;;;;8.85;6.97;;;;;;;6.99;100.00;96336.44;5053815;28;24434;-75
2021/10/12 06:54:54;;;;;;;8.35;7.15;;;;;;;7.03;100.00;96334.56;5054030;28;24777;-76
2021/10/12 06:57:20;;;;;;;8.70;7.47;;;;;;;6.95;100.00;96337.47;5053880;28;24431;-75
2021/10/12 06:59:47;;;;;;;8.82;7.93;;;;;;;6.95;100.00;96341.78;5053842;28;24797;-76
2021/10/12 07:02:14;;;;;;;10.27;8.02;;;;;;;6.79;100.00;96337.22;5053873;28;24493;-76
2021/10/12 07:04:42;;;;;;;12.48;8.32;;;;;;;6.83;100.00;96337.94;5053430;28;24446;-76
2021/10/12 07:07:08;;;;;;;9.23;8.02;;;;;;;6.86;100.00;96327.53;5053358;28;24435;-75
2021/10/12 07:09:35;;;;;;;16.85;8.15;;;;;;;6.79;100.00;96331.25;5053500;28;24423;-76
2021/10/12 07:12:01;;;;;;;8.77;7.82;;;;;;;6.79;100.00;96344.13;5053427;28;24476;-75
2021/10/12 07:14:29;;;;;;;8.93;8.02;;;;;;;6.81;100.00;96337.16;5053254;28;24426;-75
2021/10/12 07:16:55;;;;;;;9.30;8.02;;;;;;;6.89;100.00;96340.25;5052997;28;24420;-75
2021/10/12 07:19:22;;;;;;;8.43;7.60;;;;;;;6.80;100.00;96335.50;5053300;28;24945;-76
2021/10/12 07:21:49;;;;;;;11.25;7.68;;;;;;;6.93;100.00;96341.81;5052780;28;25164;-77
2021/10/12 07:24:16;;;;;;;10.00;8.07;;;;;;;6.90;100.00;96339.38;5053163;28;20755;-76
2021/10/12 07:26:42;;;;;;;9.32;7.93;;;;;;;7.02;100.00;96338.06;5053709;28;24435;-76
2021/10/12 07:29:09;;;;;;;10.07;8.23;;;;;;;7.06;100.00;96331.06;5053523;28;24419;-74
2021/10/12 07:31:35;;;;;;;14.18;8.98;;;;;;;7.13;100.00;96335.06;5053442;28;24435;-76
2021/10/12 07:34:02;;;;;;;10.38;8.98;;;;;;;6.99;100.00;96340.75;5053873;28;24782;-76
2021/10/12 07:36:28;;;;;;;9.98;7.85;;;;;;;7.09;100.00;96324.03;5053376;28;25018;-75
2021/10/12 07:38:56;;;;;;;9.77;7.70;;;;;;;7.08;100.00;96319.78;5053056;28;24992;-75
2021/10/12 07:41:22;;;;;;;10.02;8.30;;;;;;;7.00;100.00;96319.25;5052865;28;24781;-76
2021/10/12 07:43:49;;;;;;;14.38;8.73;;;;;;;7.02;100.00;96309.72;5052738;28;24984;-76
2021/10/12 07:46:15;;;;;;;13.75;8.50;;;;;;;6.99;100.00;96313.25;5052622;28;24430;-76
2021/10/12 07:48:42;;;;;;;12.13;8.98;;;;;;;6.96;100.00;96297.94;5053279;28;24770;-76
2021/10/12 07:51:08;;;;;;;13.07;8.90;;;;;;;7.10;100.00;96291.41;5053159;28;24427;-76
2021/10/12 07:53:37;;;;;;;13.27;9.60;;;;;;;7.10;100.00;96288.81;5056641;28;24431;-76
2021/10/12 07:56:08;;;;;;;15.43;11.07;;;;;;;7.00;100.00;96288.34;5052515;28;25036;-75
2021/10/12 07:58:35;;;;;;;13.85;10.45;;;;;;;6.97;100.00;96294.47;5052641;28;24489;-75
2021/10/12 08:01:03;;;;;;;14.32;11.30;;;;;;;6.97;100.00;96293.59;5052413;28;24832;-76
2021/10/12 08:03:29;;;;;;;12.27;9.63;;;;;;;6.92;100.00;96303.28;5052247;28;25003;-76
2021/10/12 08:05:56;;;;;;;10.60;8.27;;;;;;;6.90;100.00;96295.63;5052183;28;24423;-75
2021/10/12 08:08:22;;;;;;;9.32;8.05;;;;;;;6.86;100.00;96293.19;5052269;28;24422;-76
2021/10/12 08:10:48;;;;;;;10.90;8.40;;;;;;;6.84;100.00;96293.28;5052208;28;24426;-76
2021/10/12 08:13:19;;;;;;;11.93;8.40;;;;;;;6.82;100.00;96294.22;5052055;28;24423;-76
2021/10/12 08:15:50;;;;;;;10.60;7.15;;;;;;;6.92;100.00;96283.50;5051946;28;24473;-76
2021/10/12 08:18:17;;;;;;;8.40;6.90;;;;;;;7.03;100.00;96301.09;5052232;28;24435;-76
2021/10/12 08:20:44;;;;;;;7.95;7.10;;;;;;;7.10;100.00;96299.13;5051941;28;24435;-76
2021/10/12 08:23:11;;;;;;;8.50;7.32;;;;;;;7.18;100.00;96295.31;5052097;28;24450;-76
2021/10/12 08:25:37;;;;;;;11.45;7.38;;;;;;;7.31;100.00;96295.66;5051487;28;24975;-76
2021/10/12 08:28:04;;;;;;;10.05;7.30;;;;;;;7.26;100.00;96301.00;5051786;28;24423;-75
2021/10/12 08:30:32;;;;;;;10.43;7.75;;;;;;;7.37;100.00;96292.81;5052087;28;24423;-76
2021/10/12 08:32:59;;;;;;;9.90;7.83;;;;;;;7.49;100.00;96296.63;5051854;28;24487;-75
2021/10/12 08:35:25;;;;;;;12.30;6.72;;;;;;;7.55;100.00;96298.13;5051678;28;24423;-76
2021/10/12 08:37:52;;;;;;;8.05;6.38;;;;;;;7.79;100.00;96284.19;5051630;28;24434;-75
2021/10/12 08:40:18;;;;;;;12.13;8.13;;;;;;;7.78;100.00;96292.81;5051432;28;25006;-77
2021/10/12 08:42:47;;;;;;;16.17;8.75;;;;;;;7.81;100.00;96290.09;5051553;28;24442;-76
2021/10/12 08:45:15;;;;;;;13.55;8.40;;;;;;;7.87;100.00;96287.25;5051302;28;24485;-76
2021/10/12 08:47:44;;;;;;;12.80;8.13;;;;;;;7.98;100.00;96287.63;5051600;28;24462;-75
2021/10/12 08:50:12;;;;;;;12.13;8.53;;;;;;;7.98;100.00;96285.03;5051911;28;24431;-77
2021/10/12 08:52:39;;;;;;;13.85;7.85;;;;;;;7.96;100.00;96291.16;5050585;28;24431;-77
2021/10/12 08:55:06;;;;;;;14.07;8.20;;;;;;;7.94;100.00;96285.25;5051296;28;24419;-75
2021/10/12 08:57:34;;;;;;;18.30;8.10;;;;;;;8.19;100.00;96279.81;5051260;28;24435;-76
2021/10/12 09:00:04;;;;;;;21.63;7.70;;;;;;;8.12;100.00;96281.00;5051445;28;24407;-75
2021/10/12 09:02:31;;;;;;;10.95;7.05;;;;;;;8.27;100.00;96279.47;5051254;28;24434;-75
2021/10/12 09:04:59;;;;;;;12.20;7.15;;;;;;;8.27;100.00;96277.75;5050903;28;24816;-75
2021/10/12 09:07:26;;;;;;;12.38;7.75;;;;;;;8.31;100.00;96276.69;5050958;28;24813;-75
2021/10/12 09:09:54;;;;;;;12.75;6.90;;;;;;;8.50;100.00;96275.88;5051050;28;20808;-75
2021/10/12 09:12:39;;;;;;;9.07;6.70;;;;;;;8.52;100.00;96279.22;5051257;28;24419;-75
2021/10/12 09:15:07;;;;;;;9.55;6.55;;;;;;;8.56;100.00;96267.84;5052061;28;20758;-76
2021/10/12 09:17:35;;;;;;;8.70;6.28;;;;;;;8.79;100.00;96262.44;5056983;28;24431;-76
2021/10/12 09:20:26;;;;;;;9.27;6.57;;;;;;;8.89;100.00;96258.47;5055866;28;20751;-76
2021/10/12 09:23:05;;;;;;;7.80;6.38;;;;;;;9.05;100.00;96257.72;5034027;28;24447;-76
2021/10/12 09:25:34;;;;;;;8.15;6.07;;;;;;;9.25;100.00;96256.78;5031877;28;24439;-76
2021/10/12 09:28:00;;;;;;;9.80;7.63;;;;;;;9.24;100.00;96252.53;5031498;28;24515;-76
2021/10/12 09:30:29;;;;;;;9.17;6.53;;;;;;;9.30;100.00;96252.19;5031128;28;24438;-76
2021/10/12 09:32:59;;;;;;;9.13;6.18;;;;;;;9.20;100.00;96257.84;5031563;28;20885;-76
2021/10/12 09:35:31;;;;;;;6.70;5.28;;;;;;;9.30;100.00;96253.03;5031126;28;20839;-75
2021/10/12 09:38:02;;;;;;;10.88;6.22;;;;;;;9.23;100.00;96235.31;5031143;28;20746;-76
2021/10/12 09:40:28;;;;;;;9.98;5.97;;;;;;;9.21;100.00;96236.25;5035364;28;20679;-75
2021/10/12 09:42:55;;;;;;;6.93;4.75;;;;;;;9.18;100.00;96238.97;5050415;28;24443;-76
2021/10/12 09:45:33;;;;;;;7.80;5.40;;;;;;;9.14;100.00;96241.78;5050560;28;24489;-76
2021/10/12 09:48:00;;;;;;;16.17;6.28;;;;;;;9.10;100.00;96243.69;5050819;28;21250;-76
2021/10/12 09:50:32;;;;;;;7.55;5.05;;;;;;;9.16;100.00;96239.97;5050152;28;24418;-76
2021/10/12 09:52:59;;;;;;;11.07;5.75;;;;;;;9.06;100.00;96242.16;5050561;28;20791;-76
2021/10/12 09:55:34;;;;;;;7.85;5.15;;;;;;;9.04;100.00;96237.97;5050108;28;25063;-76
2021/10/12 09:58:02;;;;;;;6.40;4.25;;;;;;;8.83;100.00;96234.72;5050421;28;20663;-75
2021/10/12 10:00:29;;;;;;;10.40;4.70;;;;;;;8.87;100.00;96234.50;5050757;28;24426;-77
2021/10/12 10:02:57;;;;;;;7.32;3.42;;;;;;;8.96;100.00;96236.59;5050314;28;24451;-77
2021/10/12 10:05:24;;;;;;;9.18;3.50;;;;;;;8.89;100.00;96232.66;5050275;28;20792;-77
2021/10/12 10:07:55;;;;;;;9.50;4.03;;;;;;;8.90;100.00;96230.94;5050565;28;24432;-77
2021/10/12 10:10:22;;;;;;;7.70;3.88;;;;;;;8.84;100.00;96226.06;5051362;28;20753;-76
2021/10/12 10:12:49;;;;;;;7.45;3.58;;;;;;;8.80;100.00;96222.78;5050520;28;20758;-77
2021/10/12 10:15:16;;;;;;;9.93;4.70;;;;;;;8.84;100.00;96223.47;5050324;28;21178;-77
2021/10/12 10:17:42;;;;;;;24.75;15.77;;;;;;;8.80;100.00;96217.63;5050253;28;24469;-77
2021/10/12 10:20:12;;;;;;;11.40;6.38;;;;;;;8.92;100.00;96208.44;5050267;28;24422;-77
2021/10/12 10:22:42;;;;;;;11.27;6.50;;;;;;;8.94;100.00;96217.78;5051237;28;24431;-77
2021/10/12 10:25:26;;;;;;;34.88;22.73;;;;;;;8.97;100.00;96211.59;5054086;28;20715;-77
2021/10/12 10:27:53;;;;;;;13.18;6.90;;;;;;;8.93;100.00;96203.16;5054389;28;20632;-77
2021/10/12 10:30:26;;;;;;;8.75;5.00;;;;;;;8.94;100.00;96202.28;5054174;28;24414;-76
2021/10/12 10:32:54;;;;;;;12.20;7.22;;;;;;;8.92;100.00;96205.84;5054038;28;24485;-76
2021/10/12 10:35:39;;;;;;;13.43;9.10;;;;;;;8.97;100.00;96206.44;5054117;28;21175;-76
2021/10/12 10:38:30;;;;;;;17.83;9.48;;;;;;;8.80;100.00;96207.28;5053862;28;24431;-75
2021/10/12 10:41:24;;;;;;;14.45;5.07;;;;;;;8.87;100.00;96203.50;5053806;28;24427;-76
2021/10/12 10:43:59;;;;;;;8.40;3.83;;;;;;;8.79;100.00;96195.28;5053868;28;24808;-76
2021/10/12 10:46:40;;;;;;;8.10;4.22;;;;;;;8.90;100.00;96198.19;5053690;28;20771;-76
2021/10/12 10:49:09;;;;;;;7.17;3.93;;;;;;;8.91;100.00;96193.84;5053690;28;24867;-76
2021/10/12 10:51:57;;;;;;;9.50;4.07;;;;;;;8.92;100.00;96187.75;5053308;28;24515;-76
2021/10/12 10:55:01;;;;;;;7.85;5.03;;;;;;;8.98;100.00;96184.06;5053580;28;24465;-76
2021/10/12 10:57:30;;;;;;;12.60;7.77;;;;;;;9.09;100.00;96182.59;5053577;28;20783;-76
2021/10/12 11:00:23;;;;;;;9.82;4.65;;;;;;;9.28;100.00;96179.09;5053480;28;20793;-76
2021/10/12 11:02:50;;;;;;;8.38;4.68;;;;;;;9.28;100.00;96172.16;5053549;28;21288;-76
2021/10/12 11:05:33;;;;;;;25.73;20.40;;;;;;;9.17;100.00;96175.28;5053487;28;24418;-76
2021/10/12 11:08:10;;;;;;;17.95;4.32;;;;;;;9.18;100.00;96169.19;5053270;28;24450;-77
2021/10/12 11:10:37;;;;;;;8.20;4.07;;;;;;;9.07;100.00;96174.06;5053616;28;24981;-75
2021/10/12 11:13:05;;;;;;;9.43;4.50;;;;;;;9.10;100.00;96167.94;5054386;28;24423;-76
2021/10/12 11:15:31;;;;;;;7.80;3.10;;;;;;;9.00;100.00;96172.72;5053219;28;24828;-77
2021/10/12 11:18:08;;;;;;;8.80;3.15;;;;;;;8.98;100.00;96164.22;5053350;28;24517;-76
2021/10/12 11:20:43;;;;;;;7.65;3.42;;;;;;;9.03;100.00;96166.56;5052962;28;21156;-76
2021/10/12 11:23:11;;;;;;;8.57;3.55;;;;;;;9.09;100.00;96148.19;5053567;28;20683;-76
2021/10/12 11:25:38;;;;;;;6.95;3.13;;;;;;;9.13;100.00;96152.28;5053174;28;24427;-76
2021/10/12 11:28:11;;;;;;;9.90;3.33;;;;;;;9.23;100.00;96153.44;5053335;28;20762;-76
2021/10/12 11:30:39;;;;;;;7.77;4.40;;;;;;;9.25;100.00;96151.63;5054637;28;20629;-76
2021/10/12 11:33:06;;;;;;;8.18;4.05;;;;;;;9.15;100.00;96142.69;5052695;28;20750;-76